sensor_id;sensor_type;location;lat;lon;timestamp;pressure;altitude;pressure_sealevel;temperature;humidity
28797;BME280;24974;54.444;18.560;2022-07-29T03:45:19;102031.50;;;14.05;83.24
28797;BME280;24974;54.444;18.560;2022-07-29T03:48:00;102036.50;;;14.22;81.96
28797;BME280;24974;54.444;18.560;2022-07-29T03:50:33;102034.00;;;14.39;81.31
28797;BME280;24974;54.444;18.560;2022-07-29T03:53:05;102039.97;;;14.27;81.67
28797;BME280;24974;54.444;18.560;2022-07-29T03:55:41;102047.56;;;14.22;82.21
28797;BME280;24974;54.444;18.560;2022-07-29T03:58:14;102045.91;;;14.21;82.17
28797;BME280;24974;54.444;18.560;2022-07-29T04:00:46;102042.97;;;14.31;81.81
28797;BME280;24974;54.444;18.560;2022-07-29T04:03:17;102042.22;;;14.44;81.64
28797;BME280;24974;54.444;18.560;2022-07-29T04:06:07;102042.44;;;14.48;81.56
28797;BME280;24974;54.444;18.560;2022-07-29T04:08:38;102038.53;;;14.68;81.13
28797;BME280;24974;54.444;18.560;2022-07-29T04:11:09;102042.31;;;14.72;80.88
28797;BME280;24974;54.444;18.560;2022-07-29T04:13:40;102047.34;;;14.83;80.63
28797;BME280;24974;54.444;18.560;2022-07-29T04:16:11;102033.44;;;15.02;79.65
28797;BME280;24974;54.444;18.560;2022-07-29T04:18:42;102035.50;;;15.24;79.16
28797;BME280;24974;54.444;18.560;2022-07-29T04:21:13;102040.09;;;15.56;78.17
28797;BME280;24974;54.444;18.560;2022-07-29T04:23:44;102041.59;;;15.76;77.21
28797;BME280;24974;54.444;18.560;2022-07-29T04:26:20;102040.94;;;15.93;77.06
28797;BME280;24974;54.444;18.560;2022-07-29T04:28:51;102042.03;;;16.06;76.77
28797;BME280;24974;54.444;18.560;2022-07-29T04:31:22;102050.75;;;16.13;76.90
28797;BME280;24974;54.444;18.560;2022-07-29T04:33:53;102048.59;;;16.32;76.78
28797;BME280;24974;54.444;18.560;2022-07-29T04:36:24;102053.28;;;16.45;76.25
28797;BME280;24974;54.444;18.560;2022-07-29T04:38:54;102054.75;;;16.51;75.74
28797;BME280;24974;54.444;18.560;2022-07-29T04:41:25;102052.75;;;16.43;75.48
28797;BME280;24974;54.444;18.560;2022-07-29T04:43:56;102054.28;;;16.49;75.85
28797;BME280;24974;54.444;18.560;2022-07-29T04:46:27;102060.84;;;16.54;76.07
28797;BME280;24974;54.444;18.560;2022-07-29T04:48:58;102061.81;;;16.58;76.12
28797;BME280;24974;54.444;18.560;2022-07-29T04:51:29;102051.66;;;17.06;74.91
28797;BME280;24974;54.444;18.560;2022-07-29T04:54:00;102048.25;;;17.58;73.56
28797;BME280;24974;54.444;18.560;2022-07-29T04:56:31;102046.91;;;17.55;73.13
28797;BME280;24974;54.444;18.560;2022-07-29T04:59:02;102050.09;;;17.71;72.41
28797;BME280;24974;54.444;18.560;2022-07-29T05:01:33;102047.06;;;17.42;73.40
28797;BME280;24974;54.444;18.560;2022-07-29T05:04:04;102045.94;;;17.51;73.55
28797;BME280;24974;54.444;18.560;2022-07-29T05:06:34;102054.31;;;17.69;72.89
28797;BME280;24974;54.444;18.560;2022-07-29T05:09:05;102048.00;;;17.94;72.03
28797;BME280;24974;54.444;18.560;2022-07-29T05:11:36;102054.22;;;17.82;72.31
28797;BME280;24974;54.444;18.560;2022-07-29T05:14:07;102049.78;;;17.73;72.62
28797;BME280;24974;54.444;18.560;2022-07-29T05:16:38;102055.78;;;17.57;72.84
28797;BME280;24974;54.444;18.560;2022-07-29T05:19:12;102058.78;;;17.78;71.82
28797;BME280;24974;54.444;18.560;2022-07-29T05:21:44;102065.22;;;17.48;72.62
28797;BME280;24974;54.444;18.560;2022-07-29T05:24:15;102064.19;;;17.75;72.00
28797;BME280;24974;54.444;18.560;2022-07-29T05:26:46;102064.28;;;17.70;71.84
28797;BME280;24974;54.444;18.560;2022-07-29T05:29:17;102067.84;;;17.44;72.41
28797;BME280;24974;54.444;18.560;2022-07-29T05:31:48;102065.41;;;17.60;71.95
28797;BME280;24974;54.444;18.560;2022-07-29T05:34:19;102060.19;;;17.58;71.51
28797;BME280;24974;54.444;18.560;2022-07-29T05:36:50;102068.69;;;17.62;71.47
28797;BME280;24974;54.444;18.560;2022-07-29T05:39:22;102061.34;;;17.66;70.33
28797;BME280;24974;54.444;18.560;2022-07-29T05:41:53;102063.44;;;17.52;70.16
28797;BME280;24974;54.444;18.560;2022-07-29T05:44:24;102059.81;;;17.43;71.13
28797;BME280;24974;54.444;18.560;2022-07-29T05:46:55;102057.91;;;17.69;70.14
28797;BME280;24974;54.444;18.560;2022-07-29T05:49:26;102059.44;;;17.84;68.84
28797;BME280;24974;54.444;18.560;2022-07-29T05:51:56;102047.66;;;17.96;66.76
28797;BME280;24974;54.444;18.560;2022-07-29T05:54:28;102061.41;;;18.18;65.40
28797;BME280;24974;54.444;18.560;2022-07-29T05:56:59;102057.97;;;18.38;64.90
28797;BME280;24974;54.444;18.560;2022-07-29T05:59:30;102056.00;;;18.39;64.40
28797;BME280;24974;54.444;18.560;2022-07-29T06:02:01;102049.72;;;18.77;63.25
28797;BME280;24974;54.444;18.560;2022-07-29T06:04:32;102055.31;;;18.59;63.90
28797;BME280;24974;54.444;18.560;2022-07-29T06:07:04;102045.47;;;18.79;62.91
28797;BME280;24974;54.444;18.560;2022-07-29T06:09:35;102051.53;;;18.72;61.58
28797;BME280;24974;54.444;18.560;2022-07-29T06:12:06;102047.88;;;18.89;60.79
28797;BME280;24974;54.444;18.560;2022-07-29T06:14:37;102045.78;;;18.86;60.00
28797;BME280;24974;54.444;18.560;2022-07-29T06:17:08;102052.53;;;18.68;60.65
28797;BME280;24974;54.444;18.560;2022-07-29T06:19:42;102054.81;;;18.75;60.57
28797;BME280;24974;54.444;18.560;2022-07-29T06:22:15;102049.91;;;18.71;60.49
28797;BME280;24974;54.444;18.560;2022-07-29T06:24:46;102056.13;;;18.77;59.79
28797;BME280;24974;54.444;18.560;2022-07-29T06:27:17;102052.09;;;19.04;58.90
28797;BME280;24974;54.444;18.560;2022-07-29T06:29:48;102054.19;;;19.45;57.93
28797;BME280;24974;54.444;18.560;2022-07-29T06:32:19;102056.50;;;19.73;56.85
28797;BME280;24974;54.444;18.560;2022-07-29T06:34:50;102053.25;;;19.71;57.08
28797;BME280;24974;54.444;18.560;2022-07-29T06:37:20;102053.66;;;19.22;58.01
28797;BME280;24974;54.444;18.560;2022-07-29T06:39:53;102047.72;;;19.24;57.68
28797;BME280;24974;54.444;18.560;2022-07-29T06:42:44;102048.53;;;19.33;57.54
28797;BME280;24974;54.444;18.560;2022-07-29T06:45:15;102047.88;;;19.66;57.37
28797;BME280;24974;54.444;18.560;2022-07-29T06:47:46;102049.50;;;19.88;56.41
28797;BME280;24974;54.444;18.560;2022-07-29T06:50:17;102057.06;;;19.66;57.62
28797;BME280;24974;54.444;18.560;2022-07-29T06:52:48;102056.59;;;20.06;55.92
28797;BME280;24974;54.444;18.560;2022-07-29T06:55:19;102057.47;;;20.19;56.05
28797;BME280;24974;54.444;18.560;2022-07-29T06:57:50;102057.28;;;20.24;55.31
28797;BME280;24974;54.444;18.560;2022-07-29T07:00:21;102058.06;;;20.45;55.09
28797;BME280;24974;54.444;18.560;2022-07-29T07:02:52;102058.59;;;20.59;55.20
28797;BME280;24974;54.444;18.560;2022-07-29T07:05:23;102054.31;;;20.20;56.19
28797;BME280;24974;54.444;18.560;2022-07-29T07:07:54;102055.69;;;20.56;55.02
28797;BME280;24974;54.444;18.560;2022-07-29T07:10:25;102059.91;;;20.62;54.78
28797;BME280;24974;54.444;18.560;2022-07-29T07:12:56;102058.13;;;20.57;55.64
28797;BME280;24974;54.444;18.560;2022-07-29T07:15:28;102060.25;;;20.73;55.01
28797;BME280;24974;54.444;18.560;2022-07-29T07:17:59;102057.69;;;20.67;55.60
28797;BME280;24974;54.444;18.560;2022-07-29T07:20:30;102058.56;;;20.47;55.69
28797;BME280;24974;54.444;18.560;2022-07-29T07:23:01;102063.16;;;20.64;55.42
28797;BME280;24974;54.444;18.560;2022-07-29T07:25:32;102057.38;;;20.81;54.63
28797;BME280;24974;54.444;18.560;2022-07-29T07:28:03;102059.75;;;20.58;55.67
28797;BME280;24974;54.444;18.560;2022-07-29T07:30:34;102059.00;;;20.82;54.47
28797;BME280;24974;54.444;18.560;2022-07-29T07:33:05;102061.28;;;20.68;54.75
28797;BME280;24974;54.444;18.560;2022-07-29T07:35:36;102052.53;;;20.57;55.07
28797;BME280;24974;54.444;18.560;2022-07-29T07:38:07;102060.63;;;20.83;54.79
28797;BME280;24974;54.444;18.560;2022-07-29T07:40:38;102058.06;;;20.78;55.12
28797;BME280;24974;54.444;18.560;2022-07-29T07:43:09;102061.34;;;20.80;54.94
28797;BME280;24974;54.444;18.560;2022-07-29T07:45:40;102066.59;;;20.94;54.62
28797;BME280;24974;54.444;18.560;2022-07-29T07:48:11;102063.66;;;20.78;54.98
28797;BME280;24974;54.444;18.560;2022-07-29T07:50:42;102061.16;;;21.22;53.58
28797;BME280;24974;54.444;18.560;2022-07-29T07:53:14;102057.31;;;21.02;54.12
28797;BME280;24974;54.444;18.560;2022-07-29T07:55:45;102062.41;;;21.00;53.58
28797;BME280;24974;54.444;18.560;2022-07-29T07:58:16;102062.28;;;21.09;54.15
28797;BME280;24974;54.444;18.560;2022-07-29T08:00:47;102067.78;;;21.05;53.86
28797;BME280;24974;54.444;18.560;2022-07-29T08:03:18;102071.94;;;20.87;54.91
28797;BME280;24974;54.444;18.560;2022-07-29T08:05:49;102059.59;;;20.88;54.34
28797;BME280;24974;54.444;18.560;2022-07-29T08:08:22;102062.28;;;21.09;53.82
28797;BME280;24974;54.444;18.560;2022-07-29T08:10:53;102072.16;;;20.82;54.39
28797;BME280;24974;54.444;18.560;2022-07-29T08:13:26;102078.22;;;20.84;53.68
28797;BME280;24974;54.444;18.560;2022-07-29T08:16:00;102073.94;;;20.99;53.60
28797;BME280;24974;54.444;18.560;2022-07-29T08:18:32;102078.84;;;20.68;54.57
28797;BME280;24974;54.444;18.560;2022-07-29T08:21:03;102081.34;;;20.70;54.90
28797;BME280;24974;54.444;18.560;2022-07-29T08:23:34;102078.91;;;20.93;54.43
28797;BME280;24974;54.444;18.560;2022-07-29T08:26:09;102080.53;;;20.70;54.53
28797;BME280;24974;54.444;18.560;2022-07-29T08:28:45;102080.44;;;20.78;53.85
28797;BME280;24974;54.444;18.560;2022-07-29T08:31:16;102085.19;;;20.78;54.47
28797;BME280;24974;54.444;18.560;2022-07-29T08:33:47;102089.84;;;20.74;54.38
28797;BME280;24974;54.444;18.560;2022-07-29T08:36:18;102084.03;;;21.36;52.66
28797;BME280;24974;54.444;18.560;2022-07-29T08:38:51;102083.66;;;21.38;52.15
28797;BME280;24974;54.444;18.560;2022-07-29T08:41:23;102085.53;;;21.58;51.09
28797;BME280;24974;54.444;18.560;2022-07-29T08:43:54;102090.03;;;21.02;53.41
28797;BME280;24974;54.444;18.560;2022-07-29T08:46:25;102084.63;;;21.42;51.95
28797;BME280;24974;54.444;18.560;2022-07-29T08:48:56;102089.03;;;21.43;51.67
28797;BME280;24974;54.444;18.560;2022-07-29T08:51:27;102096.03;;;21.37;51.97
28797;BME280;24974;54.444;18.560;2022-07-29T08:53:59;102087.53;;;21.58;51.05
28797;BME280;24974;54.444;18.560;2022-07-29T08:56:30;102090.09;;;21.50;51.24
28797;BME280;24974;54.444;18.560;2022-07-29T08:59:05;102095.19;;;21.48;50.02
28797;BME280;24974;54.444;18.560;2022-07-29T09:01:37;102096.03;;;21.61;51.34
28797;BME280;24974;54.444;18.560;2022-07-29T09:04:11;102093.91;;;21.70;49.32
28797;BME280;24974;54.444;18.560;2022-07-29T09:06:44;102101.41;;;21.66;49.73
28797;BME280;24974;54.444;18.560;2022-07-29T09:09:16;102099.72;;;21.90;49.08
28797;BME280;24974;54.444;18.560;2022-07-29T09:11:47;102094.03;;;21.62;50.97
28797;BME280;24974;54.444;18.560;2022-07-29T09:14:19;102098.59;;;21.66;49.11
28797;BME280;24974;54.444;18.560;2022-07-29T09:16:54;102094.84;;;21.62;49.78
28797;BME280;24974;54.444;18.560;2022-07-29T09:19:31;102096.63;;;22.31;47.70
28797;BME280;24974;54.444;18.560;2022-07-29T09:22:05;102099.38;;;21.91;49.30
28797;BME280;24974;54.444;18.560;2022-07-29T09:24:43;102093.19;;;21.98;49.40
28797;BME280;24974;54.444;18.560;2022-07-29T09:27:25;102096.41;;;22.24;48.90
28797;BME280;24974;54.444;18.560;2022-07-29T09:32:55;102085.28;;;22.28;47.93
28797;BME280;24974;54.444;18.560;2022-07-29T09:35:27;102089.72;;;22.29;47.64
28797;BME280;24974;54.444;18.560;2022-07-29T09:38:12;102095.69;;;22.55;46.52
28797;BME280;24974;54.444;18.560;2022-07-29T09:40:56;102088.31;;;22.63;46.78
28797;BME280;24974;54.444;18.560;2022-07-29T09:43:27;102088.31;;;23.07;47.27
28797;BME280;24974;54.444;18.560;2022-07-29T09:46:12;102089.22;;;22.67;46.52
28797;BME280;24974;54.444;18.560;2022-07-29T09:48:43;102080.00;;;22.95;46.13
28797;BME280;24974;54.444;18.560;2022-07-29T09:51:18;102078.44;;;22.97;45.66
28797;BME280;24974;54.444;18.560;2022-07-29T09:53:49;102075.03;;;23.20;45.96
28797;BME280;24974;54.444;18.560;2022-07-29T09:56:42;102078.34;;;23.41;45.24
28797;BME280;24974;54.444;18.560;2022-07-29T09:59:14;102070.84;;;23.61;44.50
28797;BME280;24974;54.444;18.560;2022-07-29T10:01:45;102071.91;;;23.40;45.61
28797;BME280;24974;54.444;18.560;2022-07-29T10:04:16;102075.38;;;23.18;45.50
28797;BME280;24974;54.444;18.560;2022-07-29T10:06:58;102070.22;;;23.87;44.12
28797;BME280;24974;54.444;18.560;2022-07-29T10:09:30;102072.16;;;23.83;45.17
28797;BME280;24974;54.444;18.560;2022-07-29T10:12:14;102065.84;;;23.54;44.81
28797;BME280;24974;54.444;18.560;2022-07-29T10:14:45;102071.44;;;24.24;44.09
28797;BME280;24974;54.444;18.560;2022-07-29T10:17:17;102060.66;;;24.07;43.51
28797;BME280;24974;54.444;18.560;2022-07-29T10:19:49;102066.69;;;24.28;43.82
28797;BME280;24974;54.444;18.560;2022-07-29T10:22:20;102064.00;;;24.32;43.21
28797;BME280;24974;54.444;18.560;2022-07-29T10:24:51;102063.22;;;24.16;43.22
28797;BME280;24974;54.444;18.560;2022-07-29T10:27:22;102065.13;;;24.70;43.27
28797;BME280;24974;54.444;18.560;2022-07-29T10:29:54;102061.41;;;24.43;42.26
28797;BME280;24974;54.444;18.560;2022-07-29T10:35:18;102064.22;;;25.08;40.61
28797;BME280;24974;54.444;18.560;2022-07-29T10:38:07;102057.13;;;25.41;40.08
28797;BME280;24974;54.444;18.560;2022-07-29T10:46:45;102056.09;;;26.76;37.04
28797;BME280;24974;54.444;18.560;2022-07-29T10:49:18;102050.78;;;27.08;36.21
28797;BME280;24974;54.444;18.560;2022-07-29T10:52:08;102042.38;;;27.15;35.74
28797;BME280;24974;54.444;18.560;2022-07-29T10:54:48;102036.91;;;26.89;36.22
28797;BME280;24974;54.444;18.560;2022-07-29T11:05:03;102048.06;;;26.78;34.67
28797;BME280;24974;54.444;18.560;2022-07-29T11:07:36;102050.59;;;27.35;30.31
28797;BME280;24974;54.444;18.560;2022-07-29T11:12:45;102057.94;;;26.24;32.64
28797;BME280;24974;54.444;18.560;2022-07-29T11:15:20;102055.31;;;26.75;31.08
28797;BME280;24974;54.444;18.560;2022-07-29T11:21:00;102052.00;;;26.70;33.27
28797;BME280;24974;54.444;18.560;2022-07-29T11:23:34;102048.13;;;26.82;32.25
28797;BME280;24974;54.444;18.560;2022-07-29T11:29:01;102047.06;;;27.48;33.65
28797;BME280;24974;54.444;18.560;2022-07-29T11:31:38;102040.16;;;28.01;32.51
28797;BME280;24974;54.444;18.560;2022-07-29T11:34:32;102032.50;;;27.39;30.77
28797;BME280;24974;54.444;18.560;2022-07-29T11:39:41;102034.38;;;27.83;32.87
28797;BME280;24974;54.444;18.560;2022-07-29T11:50:26;102032.44;;;27.98;32.12
28797;BME280;24974;54.444;18.560;2022-07-29T11:52:58;102030.31;;;27.73;32.96
28797;BME280;24974;54.444;18.560;2022-07-29T11:55:29;102032.66;;;28.55;32.49
28797;BME280;24974;54.444;18.560;2022-07-29T11:58:01;102029.91;;;27.71;32.58
28797;BME280;24974;54.444;18.560;2022-07-29T12:00:38;102031.72;;;28.22;31.16
28797;BME280;24974;54.444;18.560;2022-07-29T12:03:10;102029.22;;;27.99;31.55
28797;BME280;24974;54.444;18.560;2022-07-29T12:05:44;102029.44;;;28.67;30.56
28797;BME280;24974;54.444;18.560;2022-07-29T12:08:20;102030.63;;;28.52;31.78
28797;BME280;24974;54.444;18.560;2022-07-29T12:10:52;102031.03;;;28.43;31.09
28797;BME280;24974;54.444;18.560;2022-07-29T12:13:23;102035.97;;;29.14;30.74
28797;BME280;24974;54.444;18.560;2022-07-29T12:15:56;102037.59;;;29.36;30.17
28797;BME280;24974;54.444;18.560;2022-07-29T12:18:28;102029.06;;;29.50;28.48
28797;BME280;24974;54.444;18.560;2022-07-29T12:21:00;102026.97;;;28.44;30.02
28797;BME280;24974;54.444;18.560;2022-07-29T12:23:34;102027.91;;;27.75;30.45
28797;BME280;24974;54.444;18.560;2022-07-29T12:26:05;102025.81;;;28.59;30.26
28797;BME280;24974;54.444;18.560;2022-07-29T12:28:38;102027.97;;;27.90;31.51
28797;BME280;24974;54.444;18.560;2022-07-29T12:31:15;102028.69;;;27.72;31.89
28797;BME280;24974;54.444;18.560;2022-07-29T12:33:52;102032.78;;;27.82;32.60
28797;BME280;24974;54.444;18.560;2022-07-29T12:36:24;102028.19;;;28.39;31.56
28797;BME280;24974;54.444;18.560;2022-07-29T12:38:55;102037.88;;;28.38;31.92
28797;BME280;24974;54.444;18.560;2022-07-29T12:41:28;102038.69;;;28.42;30.96
28797;BME280;24974;54.444;18.560;2022-07-29T12:43:59;102035.97;;;28.92;30.54
28797;BME280;24974;54.444;18.560;2022-07-29T12:46:30;102036.75;;;28.75;30.26
28797;BME280;24974;54.444;18.560;2022-07-29T12:49:02;102034.72;;;28.86;30.55
28797;BME280;24974;54.444;18.560;2022-07-29T12:51:38;102029.00;;;28.43;31.13
28797;BME280;24974;54.444;18.560;2022-07-29T12:54:10;102033.44;;;28.34;30.52
28797;BME280;24974;54.444;18.560;2022-07-29T12:56:43;102033.53;;;29.19;30.07
28797;BME280;24974;54.444;18.560;2022-07-29T12:59:22;102032.28;;;28.85;30.34
28797;BME280;24974;54.444;18.560;2022-07-29T13:01:53;102026.47;;;28.21;32.42
28797;BME280;24974;54.444;18.560;2022-07-29T13:04:30;102031.25;;;28.06;32.48
28797;BME280;24974;54.444;18.560;2022-07-29T13:07:06;102023.78;;;28.56;31.52
28797;BME280;24974;54.444;18.560;2022-07-29T13:09:39;102020.59;;;28.93;30.95
28797;BME280;24974;54.444;18.560;2022-07-29T13:12:12;102025.91;;;27.83;32.83
28797;BME280;24974;54.444;18.560;2022-07-29T13:14:48;102020.00;;;28.09;31.54
28797;BME280;24974;54.444;18.560;2022-07-29T13:17:21;102024.75;;;26.81;34.61
28797;BME280;24974;54.444;18.560;2022-07-29T13:20:08;102021.91;;;26.40;36.03
28797;BME280;24974;54.444;18.560;2022-07-29T13:22:43;102022.53;;;25.66;37.73
28797;BME280;24974;54.444;18.560;2022-07-29T13:25:31;102019.72;;;24.68;40.11
28797;BME280;24974;54.444;18.560;2022-07-29T13:28:02;102016.41;;;24.85;39.97
28797;BME280;24974;54.444;18.560;2022-07-29T13:30:33;102016.59;;;24.73;40.37
28797;BME280;24974;54.444;18.560;2022-07-29T13:33:04;102019.16;;;24.59;40.59
28797;BME280;24974;54.444;18.560;2022-07-29T13:35:35;102022.56;;;24.10;41.43
28797;BME280;24974;54.444;18.560;2022-07-29T13:38:06;102016.13;;;23.90;42.65
28797;BME280;24974;54.444;18.560;2022-07-29T13:40:37;102018.81;;;23.83;42.94
28797;BME280;24974;54.444;18.560;2022-07-29T13:43:09;102027.28;;;23.51;42.84
28797;BME280;24974;54.444;18.560;2022-07-29T13:45:40;102023.03;;;23.41;43.02
28797;BME280;24974;54.444;18.560;2022-07-29T13:48:11;102021.19;;;24.00;41.90
28797;BME280;24974;54.444;18.560;2022-07-29T13:50:42;102022.66;;;24.75;40.18
28797;BME280;24974;54.444;18.560;2022-07-29T13:53:14;102021.66;;;25.89;38.89
28797;BME280;24974;54.444;18.560;2022-07-29T13:55:45;102013.22;;;27.00;36.27
28797;BME280;24974;54.444;18.560;2022-07-29T13:58:15;102011.69;;;27.07;36.57
28797;BME280;24974;54.444;18.560;2022-07-29T14:00:46;102011.97;;;27.46;36.00
28797;BME280;24974;54.444;18.560;2022-07-29T14:03:17;102012.94;;;27.13;36.83
28797;BME280;24974;54.444;18.560;2022-07-29T14:05:48;102011.53;;;26.92;37.66
28797;BME280;24974;54.444;18.560;2022-07-29T14:08:19;102006.94;;;26.73;38.50
28797;BME280;24974;54.444;18.560;2022-07-29T14:10:50;102018.44;;;26.98;38.34
28797;BME280;24974;54.444;18.560;2022-07-29T14:13:21;102008.16;;;26.76;38.58
28797;BME280;24974;54.444;18.560;2022-07-29T14:15:52;102021.28;;;25.90;40.11
28797;BME280;24974;54.444;18.560;2022-07-29T14:18:23;102011.47;;;26.11;39.79
28797;BME280;24974;54.444;18.560;2022-07-29T14:20:54;102015.94;;;25.82;39.60
28797;BME280;24974;54.444;18.560;2022-07-29T14:23:25;102012.38;;;25.32;40.57
28797;BME280;24974;54.444;18.560;2022-07-29T14:25:56;102008.63;;;25.01;42.31
28797;BME280;24974;54.444;18.560;2022-07-29T14:28:27;102008.19;;;24.53;42.93
28797;BME280;24974;54.444;18.560;2022-07-29T14:30:58;102011.63;;;24.24;43.45
28797;BME280;24974;54.444;18.560;2022-07-29T14:33:29;102010.31;;;24.37;43.61
28797;BME280;24974;54.444;18.560;2022-07-29T14:36:00;102001.66;;;24.07;44.19
28797;BME280;24974;54.444;18.560;2022-07-29T14:38:31;102003.28;;;24.70;42.34
28797;BME280;24974;54.444;18.560;2022-07-29T14:41:03;101992.38;;;25.10;41.71
28797;BME280;24974;54.444;18.560;2022-07-29T14:43:34;101988.28;;;25.61;39.88
28797;BME280;24974;54.444;18.560;2022-07-29T14:46:05;101991.84;;;25.58;40.50
28797;BME280;24974;54.444;18.560;2022-07-29T14:48:37;101994.44;;;25.70;40.41
28797;BME280;24974;54.444;18.560;2022-07-29T14:51:08;101987.59;;;25.41;39.61
28797;BME280;24974;54.444;18.560;2022-07-29T14:53:39;101992.22;;;25.56;39.85
28797;BME280;24974;54.444;18.560;2022-07-29T14:56:10;101993.03;;;25.57;39.43
28797;BME280;24974;54.444;18.560;2022-07-29T14:58:41;101996.47;;;25.43;39.75
28797;BME280;24974;54.444;18.560;2022-07-29T15:01:12;101992.59;;;24.56;41.02
28797;BME280;24974;54.444;18.560;2022-07-29T15:03:43;101988.44;;;24.08;41.26
28797;BME280;24974;54.444;18.560;2022-07-29T15:06:14;101985.03;;;23.60;43.18
28797;BME280;24974;54.444;18.560;2022-07-29T15:08:45;101987.44;;;23.26;43.32
28797;BME280;24974;54.444;18.560;2022-07-29T15:11:15;101982.91;;;23.22;43.39
28797;BME280;24974;54.444;18.560;2022-07-29T15:13:46;101976.44;;;22.86;44.04
28797;BME280;24974;54.444;18.560;2022-07-29T15:16:17;101980.22;;;22.94;43.82
28797;BME280;24974;54.444;18.560;2022-07-29T15:18:48;101974.56;;;22.78;44.95
28797;BME280;24974;54.444;18.560;2022-07-29T15:21:19;101972.31;;;23.66;43.50
28797;BME280;24974;54.444;18.560;2022-07-29T15:23:50;101970.47;;;24.12;41.88
28797;BME280;24974;54.444;18.560;2022-07-29T15:26:21;101970.00;;;24.29;41.01
28797;BME280;24974;54.444;18.560;2022-07-29T15:28:52;101974.34;;;24.69;40.00
28797;BME280;24974;54.444;18.560;2022-07-29T15:31:23;101980.56;;;25.28;38.64
28797;BME280;24974;54.444;18.560;2022-07-29T15:33:54;101978.94;;;25.27;39.17
28797;BME280;24974;54.444;18.560;2022-07-29T15:36:25;101971.03;;;25.36;39.25
28797;BME280;24974;54.444;18.560;2022-07-29T15:38:56;101972.59;;;25.33;38.00
28797;BME280;24974;54.444;18.560;2022-07-29T15:41:27;101965.31;;;25.29;38.56
28797;BME280;24974;54.444;18.560;2022-07-29T15:43:58;101963.19;;;25.22;37.71
28797;BME280;24974;54.444;18.560;2022-07-29T15:46:29;101958.38;;;25.23;38.10
28797;BME280;24974;54.444;18.560;2022-07-29T15:49:18;101960.88;;;24.55;39.58
28797;BME280;24974;54.444;18.560;2022-07-29T15:51:49;101961.19;;;24.73;39.48
28797;BME280;24974;54.444;18.560;2022-07-29T15:54:20;101961.38;;;23.80;42.56
28797;BME280;24974;54.444;18.560;2022-07-29T15:56:51;101958.69;;;23.13;44.29
28797;BME280;24974;54.444;18.560;2022-07-29T15:59:22;101960.09;;;22.44;45.31
28797;BME280;24974;54.444;18.560;2022-07-29T16:01:54;101953.84;;;22.19;45.88
28797;BME280;24974;54.444;18.560;2022-07-29T16:04:26;101949.00;;;22.48;45.66
28797;BME280;24974;54.444;18.560;2022-07-29T16:06:57;101947.41;;;22.78;44.88
28797;BME280;24974;54.444;18.560;2022-07-29T16:09:28;101945.44;;;23.30;44.56
28797;BME280;24974;54.444;18.560;2022-07-29T16:11:59;101944.69;;;23.87;42.48
28797;BME280;24974;54.444;18.560;2022-07-29T16:14:29;101934.81;;;24.36;41.38
28797;BME280;24974;54.444;18.560;2022-07-29T16:17:00;101944.16;;;24.63;40.02
28797;BME280;24974;54.444;18.560;2022-07-29T16:19:33;101944.16;;;24.63;40.73
28797;BME280;24974;54.444;18.560;2022-07-29T16:22:04;101941.53;;;23.69;43.42
28797;BME280;24974;54.444;18.560;2022-07-29T16:24:35;101939.50;;;23.15;44.57
28797;BME280;24974;54.444;18.560;2022-07-29T16:27:06;101950.63;;;22.49;45.94
28797;BME280;24974;54.444;18.560;2022-07-29T16:29:37;101939.47;;;22.21;46.45
28797;BME280;24974;54.444;18.560;2022-07-29T16:32:07;101934.66;;;22.97;44.94
28797;BME280;24974;54.444;18.560;2022-07-29T16:34:38;101935.13;;;23.53;43.30
28797;BME280;24974;54.444;18.560;2022-07-29T16:37:10;101933.19;;;24.35;40.72
28797;BME280;24974;54.444;18.560;2022-07-29T16:39:42;101925.84;;;23.88;42.45
28797;BME280;24974;54.444;18.560;2022-07-29T16:42:13;101929.63;;;23.22;44.65
28797;BME280;24974;54.444;18.560;2022-07-29T16:44:43;101919.81;;;23.31;45.27
28797;BME280;24974;54.444;18.560;2022-07-29T16:47:14;101924.69;;;22.83;46.99
28797;BME280;24974;54.444;18.560;2022-07-29T16:49:45;101927.84;;;22.50;48.36
28797;BME280;24974;54.444;18.560;2022-07-29T16:52:16;101930.06;;;22.13;48.03
28797;BME280;24974;54.444;18.560;2022-07-29T16:54:47;101919.53;;;21.94;47.80
28797;BME280;24974;54.444;18.560;2022-07-29T16:57:18;101923.00;;;21.75;48.03
28797;BME280;24974;54.444;18.560;2022-07-29T16:59:50;101919.19;;;21.68;48.52
28797;BME280;24974;54.444;18.560;2022-07-29T17:02:21;101926.59;;;21.76;48.67
28797;BME280;24974;54.444;18.560;2022-07-29T17:04:52;101926.19;;;21.62;49.33
28797;BME280;24974;54.444;18.560;2022-07-29T17:07:23;101927.72;;;21.59;48.87
28797;BME280;24974;54.444;18.560;2022-07-29T17:09:54;101924.88;;;21.19;49.64
28797;BME280;24974;54.444;18.560;2022-07-29T17:12:26;101927.06;;;21.38;48.81
28797;BME280;24974;54.444;18.560;2022-07-29T17:14:57;101920.44;;;21.42;48.60
28797;BME280;24974;54.444;18.560;2022-07-29T17:17:27;101917.50;;;21.39;48.98
28797;BME280;24974;54.444;18.560;2022-07-29T17:19:58;101922.91;;;20.95;49.78
28797;BME280;24974;54.444;18.560;2022-07-29T17:22:29;101918.47;;;21.06;49.02
28797;BME280;24974;54.444;18.560;2022-07-29T17:25:00;101924.09;;;20.94;48.86
28797;BME280;24974;54.444;18.560;2022-07-29T17:27:32;101923.81;;;20.99;48.58
28797;BME280;24974;54.444;18.560;2022-07-29T17:30:03;101921.84;;;21.12;49.22